createdAt,value
2022-11-29T00:01:46.535Z,8.12
2022-11-29T00:04:12.864Z,8.16
2022-11-29T00:06:39.169Z,7.98
2022-11-29T00:09:05.481Z,8.15
2022-11-29T00:11:31.767Z,8.08
2022-11-29T00:13:58.069Z,8.16
2022-11-29T00:16:24.412Z,7.95
2022-11-29T00:18:50.716Z,8.13
2022-11-29T00:21:17.019Z,8.21
2022-11-29T00:23:43.336Z,8.24
2022-11-29T00:26:09.629Z,8.06
2022-11-29T00:28:35.929Z,8.18
2022-11-29T00:31:03.094Z,8.15
2022-11-29T00:33:29.401Z,8.01
2022-11-29T00:35:55.691Z,8.09
2022-11-29T00:38:21.994Z,8.13
2022-11-29T00:40:48.284Z,8.13
2022-11-29T00:43:14.594Z,8.18
2022-11-29T00:45:40.945Z,8.10
2022-11-29T00:48:07.256Z,8.05
2022-11-29T00:50:33.556Z,8.08
2022-11-29T00:52:59.867Z,8.07
2022-11-29T00:55:26.163Z,8.12
2022-11-29T00:57:52.462Z,8.05
2022-11-29T01:00:18.785Z,8.01
2022-11-29T01:02:45.086Z,8.12
2022-11-29T01:05:11.403Z,8.01
2022-11-29T01:07:37.759Z,7.80
2022-11-29T01:10:04.089Z,7.84
2022-11-29T01:12:30.391Z,8.02
2022-11-29T01:14:56.720Z,8.00
2022-11-29T01:17:23.035Z,7.86
2022-11-29T01:19:51.022Z,7.78
2022-11-29T01:22:17.525Z,7.75
2022-11-29T01:24:44.140Z,7.72
2022-11-29T01:27:10.655Z,7.88
2022-11-29T01:29:36.971Z,8.02
2022-11-29T01:32:03.261Z,7.84
2022-11-29T01:34:29.565Z,7.87
2022-11-29T01:36:55.918Z,7.98
2022-11-29T01:39:22.207Z,8.02
2022-11-29T01:41:48.487Z,8.03
2022-11-29T01:44:14.794Z,7.86
2022-11-29T01:46:41.090Z,7.85
2022-11-29T01:49:07.374Z,7.95
2022-11-29T01:51:33.678Z,7.92
2022-11-29T01:53:59.951Z,7.69
2022-11-29T01:56:26.225Z,7.80
2022-11-29T01:58:52.530Z,7.79
2022-11-29T02:01:18.842Z,7.92
2022-11-29T02:03:45.157Z,7.90
2022-11-29T02:06:11.449Z,7.75
2022-11-29T02:08:37.728Z,7.85
2022-11-29T02:11:04.015Z,7.91
2022-11-29T02:13:30.350Z,7.98
2022-11-29T02:15:56.668Z,7.78
2022-11-29T02:18:22.976Z,7.88
2022-11-29T02:20:49.285Z,7.77
2022-11-29T02:23:15.567Z,7.54
2022-11-29T02:25:41.855Z,7.70
2022-11-29T02:28:08.152Z,7.65
2022-11-29T02:30:34.486Z,7.73
2022-11-29T02:33:00.798Z,7.63
2022-11-29T02:35:27.095Z,7.71
2022-11-29T02:37:53.377Z,7.73
2022-11-29T02:40:19.669Z,7.58
2022-11-29T02:42:48.709Z,7.63
2022-11-29T02:45:18.825Z,7.73
2022-11-29T02:47:45.105Z,7.86
2022-11-29T02:50:11.411Z,7.57
2022-11-29T02:52:37.701Z,7.69
2022-11-29T02:55:03.990Z,7.62
2022-11-29T02:57:30.272Z,7.59
2022-11-29T02:59:56.564Z,7.62
2022-11-29T03:02:22.902Z,7.78
2022-11-29T03:04:49.262Z,7.74
2022-11-29T03:07:15.573Z,7.70
2022-11-29T03:09:41.881Z,7.74
2022-11-29T03:12:08.184Z,7.74
2022-11-29T03:14:34.475Z,7.64
2022-11-29T03:17:00.763Z,7.79
2022-11-29T03:19:27.075Z,7.78
2022-11-29T03:21:53.362Z,7.74
2022-11-29T03:24:19.641Z,7.74
2022-11-29T03:26:45.954Z,7.79
2022-11-29T03:29:12.241Z,7.75
2022-11-29T03:31:38.532Z,7.73
2022-11-29T03:34:04.833Z,7.58
2022-11-29T03:36:31.117Z,7.63
2022-11-29T03:38:57.408Z,7.55
2022-11-29T03:41:23.721Z,7.41
2022-11-29T03:43:50.012Z,7.58
2022-11-29T03:46:16.406Z,7.53
2022-11-29T03:48:42.792Z,7.69
2022-11-29T03:51:09.086Z,7.76
2022-11-29T03:53:35.387Z,7.57
2022-11-29T03:56:01.797Z,7.58
2022-11-29T03:58:28.089Z,7.67
2022-11-29T04:00:54.376Z,7.65
2022-11-29T04:03:20.680Z,7.52
2022-11-29T04:05:46.977Z,7.68
2022-11-29T04:08:13.263Z,7.56
2022-11-29T04:10:39.575Z,7.53
2022-11-29T04:13:06.115Z,7.64
2022-11-29T04:15:32.405Z,7.53
2022-11-29T04:17:58.704Z,7.58
2022-11-29T04:20:24.996Z,7.64
2022-11-29T04:22:51.289Z,7.54
2022-11-29T04:25:17.586Z,7.46
2022-11-29T04:27:43.872Z,7.55
2022-11-29T04:30:10.166Z,7.64
2022-11-29T04:32:36.473Z,7.77
2022-11-29T04:35:02.767Z,7.62
2022-11-29T04:37:29.054Z,7.70
2022-11-29T04:39:55.363Z,7.83
2022-11-29T04:42:21.656Z,7.75
2022-11-29T04:44:47.946Z,7.75
2022-11-29T04:47:14.256Z,7.80
2022-11-29T04:49:40.550Z,7.81
2022-11-29T04:52:06.844Z,7.87
2022-11-29T04:54:33.195Z,7.86
2022-11-29T04:56:59.482Z,7.89
2022-11-29T04:59:25.787Z,7.87
2022-11-29T05:01:52.163Z,7.71
2022-11-29T05:04:18.492Z,7.63
2022-11-29T05:06:44.785Z,7.74
2022-11-29T05:09:11.099Z,7.62
2022-11-29T05:11:37.405Z,7.60
2022-11-29T05:14:03.712Z,7.59
2022-11-29T05:16:30.024Z,7.63
2022-11-29T05:18:56.321Z,7.66
2022-11-29T05:21:22.616Z,7.56
2022-11-29T05:23:48.928Z,7.67
2022-11-29T05:26:15.357Z,7.66
2022-11-29T05:28:41.671Z,7.79
2022-11-29T05:31:08.018Z,7.71
2022-11-29T05:33:34.333Z,7.85
2022-11-29T05:36:00.640Z,7.80
2022-11-29T05:38:26.953Z,7.82
2022-11-29T05:40:53.244Z,7.87
2022-11-29T05:43:19.546Z,7.77
2022-11-29T05:45:45.869Z,7.65
2022-11-29T05:48:12.169Z,7.67
2022-11-29T05:50:38.453Z,7.69
2022-11-29T05:53:04.769Z,7.79
2022-11-29T05:55:31.069Z,7.86
2022-11-29T05:57:57.384Z,7.78
2022-11-29T06:00:23.748Z,7.65
2022-11-29T06:02:50.105Z,7.63
2022-11-29T06:05:16.413Z,7.65
2022-11-29T06:07:42.757Z,7.75
2022-11-29T06:10:09.131Z,7.72
2022-11-29T06:12:35.425Z,7.68
2022-11-29T06:15:01.741Z,7.62
2022-11-29T06:17:28.045Z,7.67
2022-11-29T06:19:54.335Z,7.63
2022-11-29T06:22:20.641Z,7.66
2022-11-29T06:24:47.238Z,7.55
2022-11-29T06:27:13.692Z,7.54
2022-11-29T06:29:40.004Z,7.59
2022-11-29T06:32:06.332Z,7.59
2022-11-29T06:34:32.636Z,7.65
2022-11-29T06:36:58.957Z,7.72
2022-11-29T06:39:25.256Z,7.69
2022-11-29T06:41:51.549Z,7.53
2022-11-29T06:44:18.047Z,7.57
2022-11-29T06:46:44.561Z,7.53
2022-11-29T06:49:11.159Z,7.64
2022-11-29T06:51:37.537Z,7.65
2022-11-29T06:54:03.845Z,7.61
2022-11-29T06:56:30.147Z,7.55
2022-11-29T06:58:56.471Z,7.63
2022-11-29T07:01:22.838Z,7.64
2022-11-29T07:03:49.200Z,7.66
2022-11-29T07:06:15.555Z,7.63
2022-11-29T07:08:41.860Z,7.71
2022-11-29T07:11:08.161Z,7.58
2022-11-29T07:13:34.469Z,7.62
2022-11-29T07:16:00.820Z,7.57
2022-11-29T07:18:27.477Z,7.64
2022-11-29T07:20:53.823Z,7.60
2022-11-29T07:23:20.283Z,7.63
2022-11-29T07:25:46.581Z,7.66
2022-11-29T07:28:12.910Z,7.68
2022-11-29T07:30:39.204Z,7.78
2022-11-29T07:33:05.809Z,7.75
2022-11-29T07:35:32.221Z,7.79
2022-11-29T07:37:58.515Z,7.74
2022-11-29T07:40:24.819Z,7.77
2022-11-29T07:42:51.267Z,7.82
2022-11-29T07:45:17.561Z,7.86
2022-11-29T07:47:43.860Z,7.80
2022-11-29T07:50:10.182Z,7.87
2022-11-29T07:52:36.875Z,7.86
2022-11-29T07:55:03.258Z,7.87
2022-11-29T07:57:29.558Z,7.89
2022-11-29T07:59:55.876Z,7.99
2022-11-29T08:02:22.201Z,7.99
2022-11-29T08:04:48.643Z,7.98
2022-11-29T08:07:15.160Z,7.96
2022-11-29T08:09:41.874Z,8.06
2022-11-29T08:12:08.307Z,8.03
2022-11-29T08:14:34.635Z,8.07
2022-11-29T08:17:00.921Z,8.11
2022-11-29T08:19:27.236Z,8.09
2022-11-29T08:21:53.535Z,7.97
2022-11-29T08:24:19.837Z,8.00
2022-11-29T08:26:46.163Z,8.07
2022-11-29T08:29:12.459Z,8.02
2022-11-29T08:31:38.827Z,7.88
2022-11-29T08:34:05.174Z,8.00
2022-11-29T08:36:31.478Z,8.01
2022-11-29T08:39:05.948Z,7.84
2022-11-29T08:41:35.144Z,7.80
2022-11-29T08:44:01.467Z,7.84
2022-11-29T08:46:27.773Z,7.95
2022-11-29T08:48:54.083Z,7.94
2022-11-29T08:51:20.378Z,8.10
2022-11-29T08:53:46.679Z,8.08
2022-11-29T08:56:53.331Z,8.20
2022-11-29T08:58:59.261Z,8.18
2022-11-29T09:01:25.602Z,7.99
2022-11-29T09:03:51.937Z,8.00
2022-11-29T09:06:18.241Z,8.10
2022-11-29T09:08:44.562Z,8.19
2022-11-29T09:11:10.867Z,8.22
2022-11-29T09:13:37.177Z,8.18
2022-11-29T09:16:03.580Z,8.20
2022-11-29T09:18:29.941Z,8.33
2022-11-29T09:20:56.235Z,8.31
2022-11-29T09:23:22.567Z,8.34
2022-11-29T09:25:52.093Z,8.40
2022-11-29T09:28:18.481Z,8.38
2022-11-29T09:30:44.879Z,8.35
2022-11-29T09:33:11.270Z,8.51
2022-11-29T09:35:37.578Z,8.32
2022-11-29T09:38:03.940Z,8.47
2022-11-29T09:40:30.267Z,8.52
2022-11-29T09:42:57.823Z,8.54
2022-11-29T09:45:24.164Z,8.11
2022-11-29T09:47:50.480Z,8.02
2022-11-29T09:50:16.776Z,8.01
2022-11-29T09:52:43.116Z,7.86
2022-11-29T09:55:09.430Z,7.54
2022-11-29T09:57:35.742Z,7.53
2022-11-29T10:00:02.070Z,7.59
2022-11-29T10:02:28.432Z,7.63
2022-11-29T10:04:54.727Z,7.75
2022-11-29T10:07:21.099Z,7.91
2022-11-29T10:09:47.437Z,7.71
2022-11-29T10:12:13.767Z,7.71
2022-11-29T10:14:40.088Z,7.72
2022-11-29T10:17:06.387Z,7.88
2022-11-29T10:19:32.690Z,7.93
2022-11-29T10:21:59.045Z,8.12
2022-11-29T10:24:25.355Z,7.93
2022-11-29T10:26:51.646Z,7.94
2022-11-29T10:29:17.973Z,7.95
2022-11-29T10:31:44.276Z,7.94
2022-11-29T10:34:10.584Z,7.87
2022-11-29T10:36:36.909Z,7.96
2022-11-29T10:39:03.202Z,7.99
2022-11-29T10:41:29.505Z,7.65
2022-11-29T10:43:55.816Z,7.69
2022-11-29T10:46:22.180Z,7.52
2022-11-29T10:48:48.486Z,7.52
2022-11-29T10:51:14.820Z,7.76
2022-11-29T10:53:41.120Z,7.72
2022-11-29T10:56:07.420Z,7.92
2022-11-29T10:58:33.744Z,7.93
2022-11-29T11:01:00.108Z,8.08
2022-11-29T11:03:26.487Z,7.88
2022-11-29T11:05:52.854Z,8.10
2022-11-29T11:08:19.229Z,8.27
2022-11-29T11:10:51.024Z,8.26
2022-11-29T11:13:19.395Z,8.32
2022-11-29T11:15:45.695Z,8.27
2022-11-29T11:18:11.986Z,8.43
2022-11-29T11:20:38.290Z,8.15
2022-11-29T11:23:04.573Z,8.31
2022-11-29T11:25:30.873Z,8.09
2022-11-29T11:27:57.232Z,8.09
2022-11-29T11:30:23.527Z,8.22
2022-11-29T11:32:49.814Z,7.94
2022-11-29T11:35:18.474Z,7.97
2022-11-29T11:37:44.998Z,7.93
2022-11-29T11:40:11.387Z,7.86
2022-11-29T11:42:37.819Z,7.90
2022-11-29T11:45:04.374Z,8.15
2022-11-29T11:47:30.852Z,8.18
2022-11-29T11:49:57.183Z,8.37
2022-11-29T11:52:23.490Z,8.36
2022-11-29T11:54:49.784Z,8.18
2022-11-29T11:57:16.099Z,8.07
2022-11-29T11:59:42.392Z,8.22
2022-11-29T12:02:08.709Z,8.22
2022-11-29T12:04:35.020Z,8.10
2022-11-29T12:07:01.301Z,7.80
2022-11-29T12:09:27.595Z,7.97
2022-11-29T12:11:53.905Z,8.16
2022-11-29T12:14:20.196Z,8.21
2022-11-29T12:16:46.486Z,8.21
2022-11-29T12:19:12.794Z,7.99
2022-11-29T12:21:39.092Z,8.06
2022-11-29T12:24:05.400Z,7.98
2022-11-29T12:29:18.028Z,7.93
2022-11-29T12:31:44.395Z,7.89
2022-11-29T12:34:10.688Z,8.18
2022-11-29T12:36:36.981Z,8.14
2022-11-29T12:39:03.297Z,7.98
2022-11-29T12:41:29.586Z,7.98
2022-11-29T12:43:55.879Z,7.95
2022-11-29T12:46:22.254Z,8.00
2022-11-29T12:48:48.597Z,8.01
2022-11-29T12:51:14.918Z,7.99
2022-11-29T12:53:41.231Z,7.92
2022-11-29T12:56:07.535Z,7.99
2022-11-29T12:58:33.827Z,7.95
2022-11-29T13:01:00.153Z,8.01
2022-11-29T13:03:26.447Z,8.17
2022-11-29T13:05:52.862Z,8.27
2022-11-29T13:08:19.172Z,8.37
2022-11-29T13:10:45.736Z,8.38
2022-11-29T13:13:12.042Z,8.02
2022-11-29T13:15:38.418Z,8.10
2022-11-29T13:18:04.732Z,8.10
2022-11-29T13:20:31.027Z,8.11
2022-11-29T13:22:57.362Z,7.97
2022-11-29T13:25:23.659Z,8.03
2022-11-29T13:27:49.971Z,8.08
2022-11-29T13:30:16.299Z,8.17
2022-11-29T13:32:42.588Z,8.23
2022-11-29T13:35:08.881Z,8.39
2022-11-29T13:37:35.245Z,8.60
2022-11-29T13:40:01.556Z,8.43
2022-11-29T13:42:27.858Z,8.38
2022-11-29T13:44:54.181Z,8.44
2022-11-29T13:47:20.487Z,8.26
2022-11-29T13:49:46.789Z,8.22
2022-11-29T13:52:13.105Z,8.20
2022-11-29T13:54:39.397Z,8.27
2022-11-29T13:57:05.682Z,8.34
2022-11-29T13:59:31.998Z,8.35
2022-11-29T14:01:58.355Z,8.29
2022-11-29T14:04:24.753Z,8.38
2022-11-29T14:06:51.059Z,8.24
2022-11-29T14:09:19.385Z,8.15
2022-11-29T14:11:46.315Z,8.15
2022-11-29T14:14:12.650Z,8.14
2022-11-29T14:16:38.962Z,8.27
2022-11-29T14:19:05.281Z,8.38
2022-11-29T14:21:31.597Z,8.40
2022-11-29T14:23:57.892Z,8.47
2022-11-29T14:26:28.271Z,8.46
2022-11-29T14:28:55.299Z,8.59
2022-11-29T14:31:21.641Z,8.46
2022-11-29T14:33:47.966Z,8.46
2022-11-29T14:36:14.298Z,8.41
2022-11-29T14:38:40.610Z,8.44
2022-11-29T14:41:06.905Z,8.51
2022-11-29T14:43:33.264Z,8.55
2022-11-29T14:45:59.562Z,8.52
2022-11-29T14:48:25.863Z,8.43
2022-11-29T14:50:52.176Z,8.41
2022-11-29T14:53:18.465Z,8.42
2022-11-29T14:55:44.776Z,8.42
2022-11-29T14:58:11.092Z,8.45
2022-11-29T15:00:37.379Z,8.52
2022-11-29T15:03:03.670Z,8.39
2022-11-29T15:05:29.980Z,8.38
2022-11-29T15:07:56.361Z,8.33
2022-11-29T15:10:22.674Z,8.44
2022-11-29T15:12:48.999Z,8.36
2022-11-29T15:15:15.396Z,8.42
2022-11-29T15:17:41.721Z,8.40
2022-11-29T15:20:08.043Z,8.42
2022-11-29T15:22:34.339Z,8.35
2022-11-29T15:25:00.636Z,8.30
2022-11-29T15:27:26.964Z,8.33
2022-11-29T15:29:53.260Z,8.25
2022-11-29T15:32:19.624Z,8.20
2022-11-29T15:34:46.231Z,8.07
2022-11-29T15:37:12.724Z,8.19
2022-11-29T15:39:39.023Z,8.10
2022-11-29T15:42:05.355Z,8.10
2022-11-29T15:44:31.643Z,8.10
2022-11-29T15:46:57.935Z,7.97
2022-11-29T15:49:24.276Z,8.02
2022-11-29T15:51:50.589Z,8.01
2022-11-29T15:54:16.896Z,7.84
2022-11-29T15:56:43.212Z,7.91
2022-11-29T15:59:09.512Z,7.98
2022-11-29T16:01:35.891Z,7.86
2022-11-29T16:04:02.284Z,7.83
2022-11-29T16:06:28.587Z,7.89
2022-11-29T16:08:54.892Z,7.84
2022-11-29T16:11:21.208Z,7.91
2022-11-29T16:13:47.501Z,7.86
2022-11-29T16:16:13.880Z,7.93
2022-11-29T16:18:40.257Z,7.89
2022-11-29T16:21:06.558Z,7.87
2022-11-29T16:23:32.846Z,7.88
2022-11-29T16:25:59.159Z,7.86
2022-11-29T16:28:25.448Z,7.87
2022-11-29T16:30:51.744Z,7.84
2022-11-29T16:33:18.056Z,7.75
2022-11-29T16:35:44.352Z,7.97
2022-11-29T16:38:10.698Z,8.05
2022-11-29T16:40:37.002Z,8.02
2022-11-29T16:43:03.298Z,8.01
2022-11-29T16:45:29.679Z,8.07
2022-11-29T16:47:56.053Z,8.15
2022-11-29T16:50:22.352Z,8.19
2022-11-29T16:52:52.016Z,8.12
2022-11-29T16:55:21.307Z,7.99
2022-11-29T16:57:47.609Z,7.76
2022-11-29T17:00:13.899Z,7.80
2022-11-29T17:02:40.253Z,7.87
2022-11-29T17:05:06.554Z,7.92
2022-11-29T17:07:32.878Z,7.82
2022-11-29T17:09:59.229Z,7.92
2022-11-29T17:12:25.510Z,7.85
2022-11-29T17:14:51.785Z,7.93
2022-11-29T17:17:18.072Z,8.06
2022-11-29T17:19:44.362Z,7.99
2022-11-29T17:22:10.639Z,8.11
2022-11-29T17:24:36.943Z,8.02
2022-11-29T17:27:03.221Z,8.05
2022-11-29T17:29:29.502Z,7.94
2022-11-29T17:31:55.858Z,7.92
2022-11-29T17:34:22.192Z,7.81
2022-11-29T17:36:48.492Z,7.67
2022-11-29T17:39:14.794Z,7.67
2022-11-29T17:41:41.086Z,7.71
2022-11-29T17:44:07.381Z,7.61
2022-11-29T17:46:34.466Z,7.68
2022-11-29T17:49:00.769Z,7.60
2022-11-29T17:51:51.355Z,7.57
2022-11-29T17:54:13.353Z,7.57
2022-11-29T17:56:39.659Z,7.46
2022-11-29T17:59:05.962Z,7.53
2022-11-29T18:01:32.388Z,7.61
2022-11-29T18:03:58.738Z,7.58
2022-11-29T18:06:25.029Z,7.57
2022-11-29T18:08:51.349Z,7.66
2022-11-29T18:11:17.643Z,7.66
2022-11-29T18:13:43.930Z,7.65
2022-11-29T18:16:10.248Z,7.68
2022-11-29T18:18:36.539Z,7.77
2022-11-29T18:21:02.831Z,7.71
2022-11-29T18:23:29.144Z,7.78
2022-11-29T18:25:55.432Z,7.74
2022-11-29T18:28:21.729Z,7.67
2022-11-29T18:30:48.073Z,7.64
2022-11-29T18:33:14.415Z,7.81
2022-11-29T18:35:40.716Z,7.89
2022-11-29T18:38:15.348Z,8.01
2022-11-29T18:40:42.156Z,7.89
2022-11-29T18:43:08.468Z,8.05
2022-11-29T18:45:34.771Z,8.17
2022-11-29T18:48:01.063Z,8.18
2022-11-29T18:50:27.364Z,7.94
2022-11-29T18:52:53.668Z,7.98
2022-11-29T18:55:19.959Z,7.87
2022-11-29T18:57:46.266Z,7.79
2022-11-29T19:00:12.555Z,7.67
2022-11-29T19:02:38.877Z,7.63
2022-11-29T19:05:05.240Z,7.60
2022-11-29T19:07:31.613Z,7.69
2022-11-29T19:09:57.945Z,7.62
2022-11-29T19:12:24.261Z,7.62
2022-11-29T19:14:50.940Z,7.68
2022-11-29T19:17:17.482Z,7.67
2022-11-29T19:19:44.229Z,7.62
2022-11-29T19:22:10.802Z,7.54
2022-11-29T19:24:37.089Z,7.57
2022-11-29T19:27:03.413Z,7.56
2022-11-29T19:29:29.727Z,7.59
2022-11-29T19:31:56.024Z,7.60
2022-11-29T19:34:22.349Z,7.58
2022-11-29T19:36:48.644Z,7.50
2022-11-29T19:39:14.948Z,7.58
2022-11-29T19:41:41.292Z,7.49
2022-11-29T19:44:07.601Z,7.57
2022-11-29T19:46:34.008Z,7.48
2022-11-29T19:49:00.403Z,7.53
2022-11-29T19:51:26.697Z,7.58
2022-11-29T19:53:53.008Z,7.59
2022-11-29T19:56:19.321Z,7.57
2022-11-29T19:58:45.624Z,7.54
2022-11-29T20:01:11.959Z,7.57
2022-11-29T20:03:38.283Z,7.59
2022-11-29T20:06:04.566Z,7.59
2022-11-29T20:08:30.925Z,7.65
2022-11-29T20:10:57.390Z,7.68
2022-11-29T20:13:23.698Z,7.63
2022-11-29T20:15:50.151Z,7.65
2022-11-29T20:18:16.557Z,7.70
2022-11-29T20:20:42.858Z,7.70
2022-11-29T20:23:09.210Z,7.69
2022-11-29T20:25:35.651Z,7.81
2022-11-29T20:28:01.982Z,7.61
2022-11-29T20:30:28.302Z,7.71
2022-11-29T20:32:54.612Z,7.71
2022-11-29T20:35:20.912Z,7.70
2022-11-29T20:37:47.227Z,7.73
2022-11-29T20:40:13.543Z,7.72
2022-11-29T20:42:39.880Z,7.83
2022-11-29T20:45:06.164Z,7.78
2022-11-29T20:47:32.567Z,7.80
2022-11-29T20:49:58.883Z,7.75
2022-11-29T20:52:25.211Z,7.70
2022-11-29T20:54:51.561Z,7.64
2022-11-29T20:57:17.870Z,7.71
2022-11-29T20:59:44.688Z,7.64
2022-11-29T21:02:11.235Z,7.63
2022-11-29T21:04:37.560Z,7.65
2022-11-29T21:07:03.871Z,7.65
2022-11-29T21:09:30.190Z,7.63
2022-11-29T21:11:56.497Z,7.66
2022-11-29T21:14:22.789Z,7.70
2022-11-29T21:16:49.145Z,7.68
2022-11-29T21:19:15.453Z,7.70
2022-11-29T21:21:41.751Z,7.56
2022-11-29T21:24:08.058Z,7.62
2022-11-29T21:26:38.649Z,7.63
2022-11-29T21:29:07.974Z,7.68
2022-11-29T21:31:34.335Z,7.73
2022-11-29T21:34:00.654Z,7.70
2022-11-29T21:36:26.964Z,7.60
2022-11-29T21:38:55.239Z,7.62
2022-11-29T21:41:21.747Z,7.63
2022-11-29T21:44:06.214Z,7.70
2022-11-29T21:46:33.395Z,7.88
2022-11-29T21:48:59.753Z,7.82
2022-11-29T21:51:26.035Z,7.81
2022-11-29T21:53:52.313Z,7.70
2022-11-29T21:56:18.603Z,7.73
2022-11-29T21:58:44.887Z,7.63
2022-11-29T22:01:11.162Z,7.66
2022-11-29T22:03:37.490Z,7.53
2022-11-29T22:06:03.777Z,7.56
2022-11-29T22:08:30.078Z,7.55
2022-11-29T22:10:56.377Z,7.55
2022-11-29T22:13:22.657Z,7.47
2022-11-29T22:15:48.951Z,7.75
2022-11-29T22:18:15.307Z,7.74
2022-11-29T22:20:41.587Z,7.92
2022-11-29T22:23:07.866Z,7.62
2022-11-29T22:25:34.201Z,7.78
2022-11-29T22:28:00.501Z,7.94
2022-11-29T22:30:26.813Z,7.78
2022-11-29T22:32:53.134Z,7.71
2022-11-29T22:35:19.438Z,7.82
2022-11-29T22:37:45.733Z,7.71
2022-11-29T22:40:12.056Z,7.88
2022-11-29T22:42:38.349Z,7.83
2022-11-29T22:45:04.719Z,7.91
2022-11-29T22:47:31.042Z,7.87
2022-11-29T22:49:57.340Z,7.76
2022-11-29T22:52:23.699Z,7.67
2022-11-29T22:54:50.074Z,7.68
2022-11-29T22:57:16.420Z,7.64
2022-11-29T22:59:42.716Z,7.81
2022-11-29T23:02:09.119Z,7.84
2022-11-29T23:04:35.438Z,7.70
2022-11-29T23:07:01.741Z,7.59
2022-11-29T23:09:28.056Z,7.72
2022-11-29T23:11:54.348Z,7.77
2022-11-29T23:14:20.650Z,7.77
2022-11-29T23:16:46.991Z,7.80
2022-11-29T23:19:13.310Z,7.47
2022-11-29T23:21:39.614Z,7.78
2022-11-29T23:24:05.955Z,7.52
2022-11-29T23:26:32.251Z,7.77
2022-11-29T23:28:58.546Z,7.61
2022-11-29T23:31:25.019Z,7.64
2022-11-29T23:33:51.407Z,7.78
2022-11-29T23:36:17.708Z,7.68
2022-11-29T23:38:44.022Z,7.32
2022-11-29T23:41:10.317Z,7.73
2022-11-29T23:43:36.608Z,7.69
2022-11-29T23:46:02.978Z,7.68
2022-11-29T23:48:29.279Z,7.71
2022-11-29T23:50:55.583Z,7.77
2022-11-29T23:53:21.896Z,7.53
2022-11-29T23:55:48.194Z,7.65
2022-11-29T23:58:14.488Z,7.56
